Kelly, Louisiana
Current Conditions -  °F | °C
As of 5:53 AM on Friday 28 Nov 2014 (Local Time) from KMLU Reporting Station
Haze Haze  
Wind Chill: 28°   Ceiling: Unl
Heat Index: 28°   Visibility: 5mi
Dew Point: 28°   Wind: 0mph
Humidity: 100%   Direction: NA
Pressure: 30.42"   Gusts: NA
Location:  31.98°N, 92.18°W
Report Text: KMLU 281153Z 00000KT 5SM BR CLR M02/M02 A3042 RMK AO2 SLP302 T10221022 10017 21022 58008
Loading
Personal Weather Stations






























Interactive Weather Map New forecast layout! Learn more

10-Day Weather Forecast

Advertisements
Track Severe Weather on mobile